Latest Coastal Weather Observations for Port Lincoln Airport

IDS60701

Issued at 9:41 pm CST Tuesday 23 July 2024 (issued every 10 minutes, with the page automatically refreshed every 10 minutes)

About coastal observations | Map of coastal stations | Coastal observations for SA | Marine services | Other Formats
Station Details ID: 018192 Name: PORT LINCOLN AWS Lat: -34.60 Lon: 135.88 Height: 8.5 m
Data from the previous 72 hours. | See also: Recent months at Port Lincoln Airport
Date/Time
CST
Wind Sea
Height
m
Swell Vis
km
Cloud Weather Temp
°C
Press
MSL
hPa
Rain since
9am
mm
Dir  Spd
kts
Gust
kts
Height
m
Period
s
Dir
23/09:30pm NNE 5 8 - - - - 10 Clear - 11.0 1014.0 0.0
23/09:00pm NNE 7 8 - - - - 10 - - 11.1 1014.1 0.0
23/08:30pm N 7 9 - - - - 10 - - 11.3 1014.2 0.0
23/08:00pm N 7 9 - - - - 10 - - 11.9 1014.4 0.0
23/07:30pm N 12 17 - - - - 10 - - 16.0 1014.2 0.0
23/07:00pm N 13 18 - - - - 10 - - 16.3 1014.3 0.0
23/06:30pm N 12 16 - - - - 10 - - 16.3 1014.3 0.0
23/06:00pm N 10 13 - - - - 10 - - 16.1 1014.4 0.0
23/05:30pm N 10 12 - - - - 10 - - 16.8 1014.5 0.0
23/05:00pm N 9 12 - - - - 10 - - 18.2 1014.7 0.0
23/04:30pm N 9 13 - - - - 10 - - 19.8 1014.7 0.0
23/04:00pm N 11 18 - - - - 10 - - 19.9 1014.9 0.0
23/03:30pm NNW 14 23 - - - - 10 - - 20.4 1015.1 0.0
23/03:00pm NNW 17 24 - - - - 10 - - 20.9 1015.2 0.0
23/02:32pm NNW 17 27 - - - - 10 - - 21.1 1015.5 0.0
23/02:30pm NNW 18 27 - - - - 10 - - 20.8 1015.4 0.0
23/02:22pm NNW 15 27 - - - - 10 - - 20.9 1015.5 0.0
23/02:00pm NNW 17 24 - - - - 10 - - 20.8 1015.8 0.0
23/01:30pm NNW 15 22 - - - - 10 - - 20.4 1016.4 0.0
23/01:00pm N 15 19 - - - - 10 - - 19.7 1017.0 0.0
23/12:30pm NNW 14 20 - - - - 10 - - 18.5 1017.7 0.0
23/12:00pm NNW 17 24 - - - - 10 - - 18.3 1018.2 0.0
23/11:30am NNW 18 25 - - - - 10 - - 17.8 1018.7 0.0
23/11:00am NNW 19 29 - - - - 10 - - 16.9 1019.1 0.0
23/10:58am NNW 19 29 - - - - 10 - - 17.0 1019.0 0.0
23/10:30am NNW 19 28 - - - - 10 - - 16.3 1019.1 0.0
23/10:00am NNW 20 28 - - - - 10 - - 15.4 1019.2 0.0
23/09:30am NNW 20 26 - - - - 10 - - 14.9 1019.1 0.0
23/09:00am NNW 21 29 - - - - 10 - - 13.4 1019.1 0.0
23/08:30am NNW 21 27 - - - - 10 - - 12.8 1018.9 0.0
23/08:20am NNW 22 32 - - - - 10 - - 12.5 1018.9 0.0
23/08:00am NNW 21 29 - - - - 10 - - 12.1 1018.8 0.0
23/07:30am NNW 21 28 - - - - 10 - - 11.8 1018.6 0.0
23/07:00am NNW 19 25 - - - - 10 - - 11.1 1018.6 0.0
23/06:30am NW 15 22 - - - - 10 - - 11.1 1018.8 0.0
23/06:00am NW 13 18 - - - - 10 - - 10.7 1018.8 0.0
23/05:30am NNW 7 11 - - - - 10 - - 9.2 1018.8 0.0
23/05:00am NW 1 3 - - - - 10 - - 4.9 1018.9 0.0
23/04:30am NNW 4 6 - - - - 10 - - 4.0 1019.0 0.0
23/04:00am N 6 7 - - - - 10 - - 6.5 1019.2 0.0
23/03:30am NNW 5 7 - - - - 10 - - 5.8 1019.4 0.0
23/03:00am N 6 7 - - - - 10 - - 5.7 1019.6 0.0
23/02:30am N 5 7 - - - - 10 - - 5.4 1019.9 0.0
23/02:00am NNW 5 6 - - - - 10 - - 5.9 1020.1 0.0
23/01:30am N 6 7 - - - - 10 - - 7.6 1020.3 0.0
23/01:00am N 6 7 - - - - 10 - - 7.6 1020.5 0.0
23/12:30am N 5 6 - - - - 10 - - 8.2 1020.6 0.0
23/12:00am NNE 6 8 - - - - 10 - - 8.4 1020.9 0.0
 
Date/Time
CST
Wind Sea
Height
m
Swell Vis
km
Cloud Weather Temp
°C
Press
MSL
hPa
Rain since
9am
mm
Dir  Spd
kts
Gust
kts
Height
m
Period
s
Dir
22/11:30pm N 4 5 - - - - 10 - - 5.3 1021.2 0.0
22/11:00pm NNE 5 5 - - - - 10 - - 7.2 1021.5 0.0
22/10:30pm NNE 5 6 - - - - 10 - - 7.4 1021.7 0.0
22/10:00pm NNE 6 8 - - - - 10 - - 9.5 1021.8 0.0
22/09:30pm CALM 0 0 - - - - 10 - - 10.2 1022.0 0.0
22/09:00pm ESE 1 4 - - - - 10 - - 9.4 1022.1 0.0
22/08:30pm NW 1 5 - - - - 10 - - 10.5 1022.2 0.0
22/08:00pm WNW 8 11 - - - - 10 - - 12.4 1022.1 0.0
22/07:30pm NW 12 17 - - - - 10 - - 14.2 1022.0 0.0
22/07:00pm NW 16 22 - - - - 10 - - 14.8 1021.8 0.0
22/06:30pm NW 14 18 - - - - 10 - - 14.4 1021.6 0.0
22/06:00pm NW 12 15 - - - - 10 - - 14.5 1021.6 0.0
22/05:30pm NNW 10 14 - - - - 10 - - 14.8 1021.6 0.0
22/05:00pm NW 14 21 - - - - 10 - - 16.2 1021.6 0.0
22/04:30pm NW 16 21 - - - - 10 - - 16.9 1021.5 0.0
22/04:00pm NW 18 27 - - - - 10 - - 17.3 1021.6 0.0
22/03:46pm NW 15 25 - - - - 10 - - 17.5 1021.5 0.0
22/03:30pm NW 15 21 - - - - 10 - - 17.7 1021.6 0.0
22/03:00pm NW 15 21 - - - - 10 - - 18.1 1021.5 0.0
22/02:30pm NW 18 24 - - - - 10 - - 18.2 1021.5 0.0
22/02:00pm WNW 18 24 - - - - 10 - - 18.3 1021.6 0.0
22/01:30pm WNW 19 25 - - - - 10 Partly cloudy - 18.3 1021.9 0.0
22/01:00pm NW 14 19 - - - - 10 Cloudy - 18.9 1022.2 0.0
22/12:30pm NW 15 19 - - - - 10 Mostly clear - 18.3 1022.7 0.0
22/12:00pm NW 15 22 - - - - 10 - - 17.8 1023.0 0.0
22/11:30am NNW 10 14 - - - - 10 Mostly clear - 16.7 1023.4 0.0
22/11:00am NNW 10 15 - - - - 10 Mostly clear - 15.3 1023.8 0.0
22/10:30am NNW 9 14 - - - - 10 Mostly clear - 15.1 1023.8 0.0
22/10:00am NNW 10 14 - - - - 10 - - 14.2 1023.6 0.0
22/09:30am NNW 10 13 - - - - 10 - - 13.3 1023.5 0.0
22/09:00am NW 10 13 - - - - 10 - - 12.3 1023.2 3.2
22/08:30am NW 10 13 - - - - 10 - - 11.4 1023.0 3.2
22/08:00am NW 9 13 - - - - 10 Mostly clear - 10.8 1022.6 3.2
22/07:30am NNW 7 10 - - - - 10 - - 10.3 1022.5 3.2
22/07:00am NNE 4 5 - - - - 10 - - 10.1 1022.4 3.2
22/06:30am NNW 6 8 - - - - 10 - - 10.1 1022.3 3.2
22/06:00am NW 9 13 - - - - 10 - - 10.6 1022.0 3.2
22/05:30am NW 11 13 - - - - 10 - - 11.0 1021.7 3.2
22/05:00am NW 9 12 - - - - 10 - - 10.9 1021.6 3.2
22/04:30am WNW 13 16 - - - - 10 - - 11.2 1021.5 3.2
22/04:00am NW 14 16 - - - - 10 - - 11.1 1021.4 3.2
22/03:30am NW 11 14 - - - - 10 - - 11.3 1021.3 3.2
22/03:00am NW 10 14 - - - - 10 - - 11.6 1021.3 3.2
22/02:30am WNW 11 13 - - - - 10 - - 11.3 1021.2 3.2
22/02:00am WNW 9 11 - - - - 10 - - 11.2 1021.4 3.2
22/01:30am NW 11 16 - - - - 10 Partly cloudy - 12.1 1021.4 3.2
22/01:00am NW 12 16 - - - - 10 - - 12.0 1021.5 3.2
22/12:30am NW 12 17 - - - - 10 - - 11.8 1021.7 3.2
22/12:00am NW 10 15 - - - - 10 - - 11.4 1021.7 3.2
 
Date/Time
CST
Wind Sea
Height
m
Swell Vis
km
Cloud Weather Temp
°C
Press
MSL
hPa
Rain since
9am
mm
Dir  Spd
kts
Gust
kts
Height
m
Period
s
Dir
21/11:30pm NW 12 16 - - - - 10 - - 11.4 1021.8 3.2
21/11:00pm NW 14 19 - - - - 10 Partly cloudy - 11.6 1021.8 3.2
21/10:30pm NW 13 17 - - - - 10 Partly cloudy - 11.7 1021.9 3.2
21/10:00pm NW 13 16 - - - - 10 Mostly clear - 11.7 1021.8 3.2
21/09:30pm NW 12 15 - - - - 10 - - 11.7 1021.7 3.2
21/09:00pm NNW 10 13 - - - - 10 Mostly clear - 12.0 1021.6 3.2
21/08:30pm NNW 9 12 - - - - 10 Mostly clear - 12.4 1021.6 3.2
21/08:00pm NNW 9 13 - - - - 10 Partly cloudy - 12.5 1021.5 3.2
21/07:30pm NNW 8 11 - - - - 10 Partly cloudy - 12.6 1021.2 3.2
21/07:00pm NW 11 16 - - - - 10 Mostly clear - 13.4 1020.8 3.2
21/06:30pm NW 14 19 - - - - 10 Mostly clear - 13.8 1020.5 3.2
21/06:00pm NW 17 22 - - - - 10 Mostly cloudy - 14.3 1020.4 3.2
21/05:30pm NW 16 21 - - - - 10 Partly cloudy - 14.5 1020.4 3.2
21/05:00pm NW 17 23 - - - - 10 - - 14.7 1020.2 3.2
21/04:30pm NW 18 22 - - - - 10 - - 15.8 1020.1 3.2
21/04:00pm NW 19 24 - - - - 10 - - 16.1 1019.9 3.2
21/03:30pm NW 18 25 - - - - 10 - - 16.3 1019.8 3.2
21/03:00pm NW 19 27 - - - - 10 Mostly clear - 17.0 1019.6 3.2
21/02:45pm WNW 17 27 - - - - 10 Mostly clear - 17.1 1019.5 3.2
21/02:30pm NW 18 24 - - - - 10 Partly cloudy - 17.3 1019.6 3.2
21/02:00pm NW 18 24 - - - - 10 Partly cloudy - 17.2 1019.7 3.2
21/01:30pm WNW 17 23 - - - - 10 Mostly clear - 16.8 1019.8 3.2
21/01:12pm WNW 13 20 - - - - 10 Partly cloudy - 15.6 1020.1 3.2
21/01:00pm WNW 14 18 - - - - 5 Mostly clear - 14.5 1020.4 3.0
21/12:54pm WNW 14 19 - - - - 5 Mostly clear - 14.5 1020.5 3.0
21/12:30pm NW 17 23 - - - - 10 Mostly clear - 15.1 1020.7 2.8
21/12:13pm NW 14 19 - - - - 10 Mostly clear - 15.5 1020.9 2.8
21/12:00pm NW 19 29 - - - - 4 Mostly cloudy Showers 14.0 1021.1 2.8
21/11:55am NW 18 29 - - - - 5 Mostly clear - 14.0 1021.1 2.8
21/11:53am NW 17 29 - - - - 9 Mostly clear - 14.3 1021.2 2.6
21/11:52am NW 16 25 - - - - 10 Mostly clear - 14.8 1021.2 2.2
21/11:30am NW 11 15 - - - - 10 Mostly clear - 15.1 1021.3 2.0
21/11:17am NNW 12 18 - - - - 10 Partly cloudy - 14.3 1021.3 2.0
21/11:03am NW 14 18 - - - - 10 Partly cloudy - 15.1 1021.4 2.0
21/11:00am NW 13 18 - - - - 10 Partly cloudy - 14.7 1021.4 2.0
21/10:30am NNW 13 18 - - - - 10 Partly cloudy - 14.3 1021.5 2.0
21/10:00am NW 9 13 - - - - 10 Cloudy - 12.7 1021.4 2.0
21/09:47am NNW 7 11 - - - - 8 Partly cloudy - 11.9 1021.5 2.0
21/09:40am NNW 9 13 - - - - 7 Partly cloudy - 11.7 1021.4 2.0
21/09:30am NNW 11 14 - - - - 3 Mostly clear - 11.5 1021.3 1.6
21/09:20am NW 12 15 - - - - 5 Mostly clear - 11.5 1021.4 0.4
21/09:00am NNW 13 19 - - - - 10 Mostly cloudy - 12.4 1020.9 0.6
21/08:30am NNW 11 14 - - - - 10 Mostly clear - 11.8 1020.7 0.6
21/08:00am NW 10 14 - - - - 10 Mostly clear - 11.8 1020.7 0.6
21/07:30am NW 7 10 - - - - 10 Mostly clear - 11.3 1020.5 0.6
21/07:00am NW 9 12 - - - - 10 Mostly clear - 11.7 1020.4 0.6
21/06:53am NW 9 13 - - - - 10 Partly cloudy - 11.6 1020.4 0.6
21/06:36am NW 8 12 - - - - 5 Mostly clear - 11.5 1020.1 0.6
21/06:30am NW 8 12 - - - - 10 Mostly clear - 11.5 1020.1 0.6
21/06:00am WNW 7 10 - - - - 10 Cloudy - 11.8 1019.9 0.6
21/05:30am NNW 9 13 - - - - 10 Partly cloudy - 11.4 1019.5 0.6
21/05:00am NNW 9 11 - - - - 10 Mostly clear - 11.2 1019.5 0.6
21/04:30am NNW 9 12 - - - - 10 Partly cloudy - 11.5 1019.6 0.6
21/04:00am NNW 9 12 - - - - 10 - - 11.5 1019.5 0.6
21/03:30am NW 12 17 - - - - 10 - - 12.7 1019.6 0.6
21/03:00am NW 13 17 - - - - 10 Partly cloudy - 13.1 1019.7 0.6
21/02:30am NW 12 16 - - - - 10 Mostly clear - 13.2 1020.1 0.6
21/02:00am NW 11 14 - - - - 10 Partly cloudy - 13.3 1020.2 0.6
21/01:30am NW 12 15 - - - - 10 Partly cloudy - 13.4 1020.2 0.6
21/01:00am NW 11 14 - - - - 10 Partly cloudy - 13.4 1020.2 0.4
21/12:30am NW 10 14 - - - - 10 Partly cloudy - 13.1 1020.4 0.4
21/12:00am NW 11 13 - - - - 10 Cloudy - 13.5 1020.6 0.4
 
Date/Time
CST
Wind Sea
Height
m
Swell Vis
km
Cloud Weather Temp
°C
Press
MSL
hPa
Rain since
9am
mm
Dir  Spd
kts
Gust
kts
Height
m
Period
s
Dir
20/11:30pm NW 11 14 - - - - 10 Mostly clear - 13.6 1020.6 0.4
20/11:00pm NW 10 13 - - - - 10 Mostly clear - 13.9 1020.6 0.4
20/10:30pm WNW 12 17 - - - - 10 Mostly clear - 13.3 1020.4 0.4
20/10:00pm WNW 12 15 - - - - 10 Mostly clear - 13.4 1020.4 0.4

Other formats

Comma delimited format used in spreadsheet applications
http://www.bom.gov.au/fwo/IDS60701/IDS60701.95661.axf

JavaScript Object Notation format (JSON) in row-major order
http://www.bom.gov.au/fwo/IDS60701/IDS60701.95661.json

Data quality

Most of these data are generated automatically and are frequently updated. Quality checks on data are not normally performed. It is possible for incorrect values to appear. Refer to information at About Latest Weather Observations and please check the disclaimer before using these data.